Time;durP1;ratioP1;P1;durP2;ratioP2;P2;SDS_P1;SDS_P2;PMS_P1;PMS_P2;Temp;Humidity;BMP_temperature;BMP_pressure;BME280_temperature;BME280_humidity;BME280_pressure;Samples;Min_cycle;Max_cycle;Signal;HPM_P1;HPM_P2
2022/07/30 00:00:10;;;;;;;1.20;1.10;;;;;;;16.12;78.72;101376.06;5115315;28;20044;-70
2022/07/30 00:02:36;;;;;;;1.23;1.13;;;;;;;16.10;79.08;101378.94;5115224;28;20122;-69
2022/07/30 00:05:03;;;;;;;2.27;1.17;;;;;;;16.08;79.05;101370.22;5115739;28;20138;-69
2022/07/30 00:07:28;;;;;;;1.35;1.25;;;;;;;16.08;78.69;101377.47;5115487;28;20130;-70
2022/07/30 00:09:54;;;;;;;2.93;1.47;;;;;;;16.14;78.92;101381.25;5115326;28;20115;-71
2022/07/30 00:12:19;;;;;;;2.23;1.20;;;;;;;16.13;78.72;101371.53;5096995;28;20510;-71
2022/07/30 00:14:45;;;;;;;1.73;1.30;;;;;;;16.10;78.88;101375.41;5115413;28;20032;-69
2022/07/30 00:17:10;;;;;;;1.37;1.17;;;;;;;16.11;79.01;101375.22;5114999;28;20481;-69
2022/07/30 00:19:36;;;;;;;1.93;1.30;;;;;;;16.13;78.89;101374.22;5113598;28;20039;-69
2022/07/30 00:22:02;;;;;;;1.50;1.40;;;;;;;16.12;78.92;101373.38;5114883;28;20118;-69
2022/07/30 00:24:27;;;;;;;1.90;1.40;;;;;;;16.13;78.78;101372.34;5114847;28;20039;-69
2022/07/30 00:26:53;;;;;;;1.30;1.00;;;;;;;16.09;78.93;101373.75;5114936;28;20035;-69
2022/07/30 00:29:18;;;;;;;3.10;1.33;;;;;;;16.11;79.40;101371.72;5114992;28;20149;-70
2022/07/30 00:31:44;;;;;;;1.40;1.20;;;;;;;16.11;79.36;101369.03;5114823;28;20047;-69
2022/07/30 00:34:11;;;;;;;1.70;1.10;;;;;;;16.13;79.40;101364.31;5114387;27;20497;-72
2022/07/30 00:36:38;;;;;;;1.15;0.88;;;;;;;16.13;79.00;101367.00;5114964;28;20039;-72
2022/07/30 00:39:03;;;;;;;2.70;1.33;;;;;;;16.16;79.37;101368.47;5114840;28;20050;-70
2022/07/30 00:41:29;;;;;;;1.60;1.50;;;;;;;16.16;79.27;101372.00;5114523;28;20040;-69
2022/07/30 00:43:54;;;;;;;1.43;1.33;;;;;;;16.19;79.05;101365.41;5112563;28;20039;-70
2022/07/30 00:46:20;;;;;;;3.07;1.10;;;;;;;16.09;79.22;101355.78;5113288;28;20032;-69
2022/07/30 00:48:46;;;;;;;1.63;1.43;;;;;;;16.14;79.84;101359.75;5112705;28;20031;-70
2022/07/30 00:51:12;;;;;;;1.30;1.20;;;;;;;16.14;79.54;101365.97;5112894;28;20035;-70
2022/07/30 00:53:38;;;;;;;1.83;1.60;;;;;;;16.07;79.74;101356.97;5096059;28;20027;-68
2022/07/30 00:56:04;;;;;;;1.40;1.30;;;;;;;16.15;79.66;101375.69;5114779;28;20049;-70
2022/07/30 00:58:31;;;;;;;2.13;1.23;;;;;;;16.13;79.87;101363.47;5114092;28;20043;-68
2022/07/30 01:00:56;;;;;;;1.87;1.40;;;;;;;16.14;79.89;101374.03;5114263;28;20096;-69
2022/07/30 01:03:22;;;;;;;1.37;1.20;;;;;;;16.10;79.88;101356.59;5114168;28;20115;-68
2022/07/30 01:05:48;;;;;;;1.30;1.20;;;;;;;16.13;80.51;101358.09;5114347;28;20421;-68
2022/07/30 01:08:14;;;;;;;1.47;1.33;;;;;;;16.14;80.30;101359.75;5114292;28;20222;-71
2022/07/30 01:10:40;;;;;;;1.57;1.40;;;;;;;16.14;80.25;101357.06;5114202;28;20467;-69
2022/07/30 01:13:06;;;;;;;1.67;1.13;;;;;;;16.14;80.22;101357.91;5114054;28;20039;-68
2022/07/30 01:15:32;;;;;;;1.50;1.00;;;;;;;16.12;80.28;101351.88;5114738;28;20062;-68
2022/07/30 01:18:00;;;;;;;2.33;1.70;;;;;;;16.11;80.29;101351.06;5113747;28;20067;-70
2022/07/30 01:20:33;;;;;;;3.70;1.42;;;;;;;16.09;80.48;101354.94;5114192;28;20032;-70
2022/07/30 01:23:26;;;;;;;2.10;1.60;;;;;;;16.05;80.54;101350.97;5114052;28;20051;-69
2022/07/30 01:25:57;;;;;;;1.23;1.13;;;;;;;16.04;80.54;101347.44;5114202;28;20088;-69
2022/07/30 01:28:27;;;;;;;1.47;1.30;;;;;;;16.05;80.38;101356.34;5114145;28;20035;-69
2022/07/30 01:30:55;;;;;;;1.67;1.57;;;;;;;16.01;80.60;101353.19;5114495;28;20035;-69
2022/07/30 01:33:22;;;;;;;1.27;1.17;;;;;;;16.02;80.66;101354.00;5114612;27;20096;-68
2022/07/30 01:35:50;;;;;;;1.40;1.30;;;;;;;16.01;80.62;101349.66;5114655;28;20097;-69
2022/07/30 01:38:20;;;;;;;2.85;1.20;;;;;;;16.05;81.00;101350.97;5112262;28;20032;-69
2022/07/30 01:40:48;;;;;;;1.73;1.53;;;;;;;16.04;80.81;101360.03;5113657;28;20130;-69
2022/07/30 01:43:14;;;;;;;1.80;1.30;;;;;;;16.03;80.71;101355.69;5113486;28;20027;-70
2022/07/30 01:45:41;;;;;;;1.47;1.20;;;;;;;16.01;80.79;101345.13;5113684;28;20421;-69
2022/07/30 01:48:09;;;;;;;1.60;1.50;;;;;;;15.72;80.91;101299.44;5113734;28;20039;-68
2022/07/30 01:50:37;;;;;;;3.08;1.13;;;;;;;16.02;81.08;101337.91;5113545;28;20122;-70
2022/07/30 01:53:04;;;;;;;2.33;1.00;;;;;;;16.00;80.95;101350.69;5113300;28;20040;-69
2022/07/30 01:55:35;;;;;;;1.80;1.70;;;;;;;16.00;80.83;101340.78;5113287;28;20130;-70
2022/07/30 01:58:03;;;;;;;1.70;1.20;;;;;;;16.02;80.96;101344.09;5113498;28;20039;-69
2022/07/30 02:00:57;;;;;;;2.20;1.77;;;;;;;16.02;80.48;101337.91;5113639;28;20458;-69
2022/07/30 02:03:22;;;;;;;1.52;1.00;;;;;;;16.00;80.48;101337.25;5113253;28;20047;-69
2022/07/30 02:06:06;;;;;;;1.50;1.40;;;;;;;16.05;80.73;101349.09;5112928;28;20035;-69
2022/07/30 02:08:41;;;;;;;1.57;1.10;;;;;;;16.05;81.08;101348.28;5113002;28;20397;-70
2022/07/30 02:11:13;;;;;;;1.53;1.00;;;;;;;16.06;80.56;101344.56;5112232;28;20058;-69
2022/07/30 02:13:57;;;;;;;1.60;1.50;;;;;;;16.08;81.00;101348.72;5113061;28;20030;-70
2022/07/30 02:16:29;;;;;;;1.40;1.30;;;;;;;16.02;80.94;101345.97;5112733;28;20057;-70
2022/07/30 02:19:05;;;;;;;2.00;1.57;;;;;;;15.64;80.66;101286.94;5112844;28;20078;-69
2022/07/30 02:21:37;;;;;;;2.60;1.60;;;;;;;15.97;81.03;101345.69;5112881;28;20035;-70
2022/07/30 02:24:11;;;;;;;1.60;1.20;;;;;;;15.90;80.61;101345.59;5112481;28;20440;-69
2022/07/30 02:26:41;;;;;;;5.20;1.47;;;;;;;15.65;80.84;101311.94;5112808;28;20042;-69
2022/07/30 02:29:09;;;;;;;1.93;1.50;;;;;;;15.85;80.54;101341.75;5114139;28;20499;-69
2022/07/30 02:31:37;;;;;;;2.35;2.15;;;;;;;15.83;80.57;101350.00;5114562;28;20042;-69
2022/07/30 02:34:05;;;;;;;1.50;1.17;;;;;;;15.83;80.97;101355.38;5115531;28;20042;-69
2022/07/30 02:36:34;;;;;;;2.77;1.53;;;;;;;15.83;81.19;101355.38;5114376;28;20043;-71
2022/07/30 02:39:02;;;;;;;2.50;1.40;;;;;;;15.82;81.28;101355.56;5112463;28;20035;-70
2022/07/30 02:41:30;;;;;;;1.60;1.15;;;;;;;15.83;80.92;101346.47;5112368;28;20047;-70
2022/07/30 02:43:56;;;;;;;1.43;1.33;;;;;;;15.80;81.11;101345.81;5112329;28;20091;-69
2022/07/30 02:46:23;;;;;;;1.37;1.27;;;;;;;15.82;80.85;101353.69;5112593;28;20035;-69
2022/07/30 02:48:52;;;;;;;2.60;1.57;;;;;;;15.91;81.19;101352.63;5112474;28;20148;-69
2022/07/30 02:51:20;;;;;;;2.73;1.60;;;;;;;15.98;80.39;101360.78;5113919;28;20035;-69
2022/07/30 02:53:48;;;;;;;1.65;1.40;;;;;;;16.01;80.05;101352.34;5114285;28;20076;-69
2022/07/30 02:56:16;;;;;;;1.55;1.30;;;;;;;16.01;79.97;101338.91;5114543;28;20403;-70
2022/07/30 02:58:44;;;;;;;3.40;1.20;;;;;;;16.13;79.61;101360.78;5113842;28;20047;-69
2022/07/30 03:01:15;;;;;;;3.27;1.40;;;;;;;16.09;79.55;101349.56;5112336;28;20498;-70
2022/07/30 03:03:45;;;;;;;2.83;1.55;;;;;;;16.01;79.42;101350.50;5112098;28;20070;-68
2022/07/30 03:06:13;;;;;;;4.30;1.70;;;;;;;15.98;79.70;101352.72;5112218;28;20134;-70
2022/07/30 03:08:40;;;;;;;1.55;1.08;;;;;;;15.92;79.80;101348.09;5112361;28;20044;-68
2022/07/30 03:11:09;;;;;;;3.70;1.33;;;;;;;15.88;79.78;101344.06;5112447;28;20040;-70
2022/07/30 03:13:35;;;;;;;2.63;1.53;;;;;;;15.84;79.78;101348.97;5112311;28;20071;-70
2022/07/30 03:16:03;;;;;;;2.90;1.70;;;;;;;15.87;79.84;101351.28;5111047;28;20039;-69
2022/07/30 03:18:31;;;;;;;;;;;;;;;15.96;79.63;101354.75;5112535;28;20397;-70
2022/07/30 03:20:58;;;;;;;1.30;1.20;;;;;;;15.87;79.16;101335.19;5112162;28;19919;-68
2022/07/30 03:23:24;;;;;;;2.43;1.77;;;;;;;16.02;79.40;101348.66;5115628;28;20085;-69
2022/07/30 03:25:55;;;;;;;1.40;1.30;;;;;;;16.09;79.03;101358.47;5116169;28;20071;-70
2022/07/30 03:28:22;;;;;;;1.53;1.20;;;;;;;16.12;78.83;101343.81;5116216;28;20055;-69
2022/07/30 03:30:49;;;;;;;1.80;1.50;;;;;;;16.25;78.47;101352.09;5115948;28;20072;-69
2022/07/30 03:33:15;;;;;;;1.23;1.13;;;;;;;16.37;78.08;101347.91;5115833;28;20031;-69
2022/07/30 03:35:44;;;;;;;1.37;1.27;;;;;;;16.56;77.33;101345.69;5116099;28;20526;-70
2022/07/30 03:38:13;;;;;;;1.45;1.27;;;;;;;16.80;75.64;101344.56;5114892;28;20035;-68
2022/07/30 03:40:40;;;;;;;1.70;1.60;;;;;;;17.03;74.23;101337.97;5115941;28;20073;-69
2022/07/30 03:43:09;;;;;;;2.63;1.80;;;;;;;17.21;74.27;101344.78;5115708;28;20095;-70
2022/07/30 03:45:36;;;;;;;1.42;1.25;;;;;;;17.14;73.49;101338.50;5115774;28;20046;-70
2022/07/30 03:48:06;;;;;;;1.40;1.30;;;;;;;16.98;73.68;101335.03;5115790;28;20051;-70
2022/07/30 03:50:34;;;;;;;2.55;1.13;;;;;;;16.93;73.34;101345.53;5115914;28;20043;-69
2022/07/30 03:53:01;;;;;;;1.30;1.10;;;;;;;16.95;73.60;101343.47;5115665;28;20027;-69
2022/07/30 03:55:27;;;;;;;3.15;1.20;;;;;;;17.02;72.97;101347.06;5115604;28;20036;-68
2022/07/30 03:57:53;;;;;;;1.02;0.90;;;;;;;17.17;72.96;101346.19;5115522;28;20032;-69
2022/07/30 04:00:19;;;;;;;2.08;0.95;;;;;;;17.20;72.62;101348.50;5115268;28;20034;-69
2022/07/30 04:02:46;;;;;;;1.60;1.50;;;;;;;17.18;72.92;101355.94;5115562;28;20044;-69
2022/07/30 04:05:13;;;;;;;2.30;1.33;;;;;;;17.16;72.51;101341.84;5115700;28;20059;-70
2022/07/30 04:07:39;;;;;;;1.17;1.08;;;;;;;17.12;72.79;101340.56;5115429;28;20118;-68
2022/07/30 04:10:05;;;;;;;1.27;0.88;;;;;;;17.28;72.81;101340.28;5115297;28;20537;-69
2022/07/30 04:12:31;;;;;;;1.58;1.27;;;;;;;17.49;72.10;101347.53;5115747;28;20043;-68
2022/07/30 04:14:56;;;;;;;1.80;1.27;;;;;;;17.69;71.54;101336.97;5115377;28;20406;-69
2022/07/30 04:17:32;;;;;;;1.92;1.63;;;;;;;17.84;71.26;101340.38;5115579;28;20075;-69
2022/07/30 04:20:05;;;;;;;2.58;1.58;;;;;;;17.87;71.63;101342.69;5115264;28;20032;-70
2022/07/30 04:22:32;;;;;;;2.65;1.02;;;;;;;17.78;71.71;101347.41;5113938;28;20032;-68
2022/07/30 04:25:00;;;;;;;2.05;1.23;;;;;;;17.70;72.30;101338.63;5114990;28;20040;-70
2022/07/30 04:27:26;;;;;;;1.15;1.00;;;;;;;17.57;73.29;101350.09;5114790;28;20039;-71
2022/07/30 04:29:55;;;;;;;2.13;1.23;;;;;;;17.62;73.64;101353.84;5115079;28;20036;-69
2022/07/30 04:32:21;;;;;;;1.27;1.00;;;;;;;17.60;72.94;101341.63;5115002;28;20145;-69
2022/07/30 04:34:53;;;;;;;2.70;1.23;;;;;;;17.55;73.86;101344.91;5114134;28;20130;-69
2022/07/30 04:37:21;;;;;;;3.53;1.20;;;;;;;17.53;73.62;101348.81;5114927;28;20573;-69
2022/07/30 04:39:52;;;;;;;1.20;1.08;;;;;;;17.52;73.60;101353.38;5114697;28;20398;-68
2022/07/30 04:42:19;;;;;;;1.63;1.52;;;;;;;17.50;74.08;101339.25;5114818;28;20502;-68
2022/07/30 04:44:44;;;;;;;1.30;1.20;;;;;;;17.60;72.83;101338.91;5114925;28;20091;-71
2022/07/30 04:47:10;;;;;;;4.68;1.42;;;;;;;17.74;73.17;101346.13;5114982;27;20039;-69
2022/07/30 04:49:36;;;;;;;2.28;1.40;;;;;;;17.93;71.62;101341.94;5114611;28;20075;-68
2022/07/30 04:52:03;;;;;;;3.45;0.90;;;;;;;18.09;71.00;101347.00;5114702;27;20032;-70
2022/07/30 04:54:42;;;;;;;1.15;1.05;;;;;;;18.22;70.75;101352.47;5114313;28;20036;-70
2022/07/30 04:57:10;;;;;;;3.28;1.80;;;;;;;18.23;69.96;101335.28;5114581;28;20059;-68
2022/07/30 04:59:36;;;;;;;1.27;0.88;;;;;;;18.30;70.15;101339.88;5114543;28;20114;-70
2022/07/30 05:02:03;;;;;;;0.90;0.90;;;;;;;18.44;69.77;101346.97;5114484;28;20060;-69
2022/07/30 05:04:30;;;;;;;2.25;1.10;;;;;;;18.36;69.33;101334.50;5114428;28;20066;-70
2022/07/30 05:06:56;;;;;;;3.53;1.00;;;;;;;18.46;69.52;101334.97;5114364;28;20035;-69
2022/07/30 05:09:22;;;;;;;1.25;1.10;;;;;;;18.89;68.51;101345.53;5114290;28;20032;-70
2022/07/30 05:11:55;;;;;;;5.20;1.15;;;;;;;19.00;67.39;101336.00;5114421;28;20032;-69
2022/07/30 05:14:22;;;;;;;2.17;1.30;;;;;;;19.01;67.05;101332.28;5114114;28;20031;-70
2022/07/30 05:16:48;;;;;;;3.58;1.30;;;;;;;19.03;67.26;101333.72;5114103;28;20035;-69
2022/07/30 05:19:14;;;;;;;2.40;1.63;;;;;;;19.02;67.36;101332.06;5113950;28;20024;-68
2022/07/30 05:21:39;;;;;;;1.45;0.82;;;;;;;19.04;67.53;101339.97;5114096;28;20046;-69
2022/07/30 05:24:05;;;;;;;1.42;1.17;;;;;;;19.11;67.23;101322.78;5113805;28;20066;-69
2022/07/30 05:26:31;;;;;;;1.63;0.88;;;;;;;19.15;67.24;101340.22;5114003;28;20081;-69
2022/07/30 05:28:56;;;;;;;2.13;1.27;;;;;;;18.94;67.96;101353.88;5113886;28;20031;-71
2022/07/30 05:31:22;;;;;;;0.95;0.50;;;;;;;18.43;68.87;101356.09;5113837;28;20474;-67
2022/07/30 05:33:48;;;;;;;6.28;1.25;;;;;;;18.07;70.41;101357.16;5113307;28;20122;-68
2022/07/30 05:36:13;;;;;;;3.55;1.38;;;;;;;17.94;72.65;101357.91;5111109;28;20043;-70
2022/07/30 05:38:39;;;;;;;2.88;1.02;;;;;;;17.75;74.75;101352.34;5113312;28;20043;-70
2022/07/30 05:41:04;;;;;;;3.67;1.20;;;;;;;17.58;75.59;101344.50;5113553;28;20043;-68
2022/07/30 05:43:30;;;;;;;2.20;1.05;;;;;;;17.70;77.15;101365.56;5113331;28;20046;-70
2022/07/30 05:45:55;;;;;;;3.30;1.30;;;;;;;17.63;77.80;101360.91;5113048;28;20525;-68
2022/07/30 05:48:21;;;;;;;1.42;1.20;;;;;;;17.38;78.80;101370.44;5113444;28;20035;-67
2022/07/30 05:50:46;;;;;;;2.03;1.33;;;;;;;17.15;80.07;101361.72;5113298;28;20399;-67
2022/07/30 05:53:12;;;;;;;2.28;1.30;;;;;;;17.14;81.20;101365.41;5113416;28;20438;-67
2022/07/30 05:55:37;;;;;;;2.05;1.52;;;;;;;17.21;81.24;101372.53;5113798;28;20038;-68
2022/07/30 05:58:03;;;;;;;2.35;1.52;;;;;;;17.09;81.74;101360.63;5113325;28;20035;-67
2022/07/30 06:00:29;;;;;;;1.50;1.05;;;;;;;17.13;81.37;101363.75;5113515;28;20417;-67
2022/07/30 06:02:54;;;;;;;6.80;2.60;;;;;;;17.18;81.60;101361.31;5113535;28;20042;-68
2022/07/30 06:05:20;;;;;;;1.55;1.40;;;;;;;17.27;81.60;101361.00;5112229;28;20088;-68
2022/07/30 06:07:46;;;;;;;1.50;1.15;;;;;;;17.29;81.01;101366.19;5113475;28;20035;-67
2022/07/30 06:10:11;;;;;;;2.95;1.20;;;;;;;17.40;80.72;101371.06;5113535;27;20036;-69
2022/07/30 06:12:37;;;;;;;1.63;1.52;;;;;;;17.51;80.96;101373.25;5113572;28;20088;-68
2022/07/30 06:15:03;;;;;;;40.47;32.63;;;;;;;17.35;82.27;101373.53;5114960;28;20027;-68
2022/07/30 06:17:30;;;;;;;2.13;1.38;;;;;;;17.18;83.14;101372.91;5118852;28;20402;-69
2022/07/30 06:19:58;;;;;;;3.05;1.63;;;;;;;17.00;83.47;101370.66;5121546;28;20031;-71
2022/07/30 06:22:24;;;;;;;3.53;1.38;;;;;;;17.02;83.66;101367.75;5114811;28;20039;-67
2022/07/30 06:24:49;;;;;;;1.40;1.30;;;;;;;17.02;84.17;101379.34;5112797;28;20035;-68
2022/07/30 06:27:15;;;;;;;2.03;1.50;;;;;;;17.03;83.93;101383.72;5112844;28;20406;-68
2022/07/30 06:29:40;;;;;;;2.40;1.50;;;;;;;17.04;85.03;101374.63;5112450;28;20074;-73
2022/07/30 06:32:06;;;;;;;3.55;1.70;;;;;;;17.13;83.97;101367.28;5112669;28;20046;-69
2022/07/30 06:34:32;;;;;;;3.17;1.35;;;;;;;17.42;82.92;101392.44;5112178;28;20425;-71
2022/07/30 06:36:59;;;;;;;3.47;2.35;;;;;;;17.64;81.34;101392.22;5112659;28;20050;-71
2022/07/30 06:39:24;;;;;;;1.35;1.23;;;;;;;17.81;81.40;101383.88;5112707;28;20035;-74
2022/07/30 06:41:50;;;;;;;1.67;1.27;;;;;;;18.15;79.34;101393.88;5112717;28;20093;-71
2022/07/30 06:44:15;;;;;;;2.22;1.45;;;;;;;18.31;79.36;101399.00;5112408;28;20088;-75
2022/07/30 06:46:41;;;;;;;8.35;1.92;;;;;;;18.30;78.23;101400.03;5113727;28;20031;-78
2022/07/30 06:49:06;;;;;;;3.88;1.45;;;;;;;18.26;77.76;101391.50;5114984;28;20032;-75
2022/07/30 06:51:32;;;;;;;2.38;1.35;;;;;;;18.31;77.62;101392.75;5114477;28;20110;-75
2022/07/30 06:53:57;;;;;;;1.75;1.17;;;;;;;18.43;77.39;101397.38;5113949;28;20032;-76
2022/07/30 06:56:22;;;;;;;4.78;2.17;;;;;;;18.38;77.18;101396.31;5113660;28;20123;-78
2022/07/30 06:58:48;;;;;;;1.67;1.30;;;;;;;18.45;75.89;101391.78;5113907;28;20122;-76
2022/07/30 07:01:13;;;;;;;2.50;1.42;;;;;;;18.62;75.93;101395.00;5118588;28;20035;-73
2022/07/30 07:03:39;;;;;;;3.83;1.20;;;;;;;18.82;75.13;101391.41;5124436;28;20515;-70
2022/07/30 07:06:05;;;;;;;4.75;1.60;;;;;;;19.02;73.97;101398.72;5118451;28;20047;-73
2022/07/30 07:08:30;;;;;;;4.13;1.20;;;;;;;19.11;73.50;101397.53;5121957;28;20035;-70
2022/07/30 07:10:56;;;;;;;1.27;1.13;;;;;;;19.18;72.38;101392.97;5120760;28;20028;-70
2022/07/30 07:13:22;;;;;;;6.90;1.75;;;;;;;19.05;72.00;101382.13;5119337;28;20032;-71
2022/07/30 07:15:47;;;;;;;3.42;1.60;;;;;;;19.06;72.88;101394.59;5117648;28;20040;-72
2022/07/30 07:18:14;;;;;;;1.33;1.23;;;;;;;19.01;73.58;101375.47;5116218;28;20040;-73
2022/07/30 07:20:39;;;;;;;2.58;1.20;;;;;;;19.23;72.81;101392.34;5112312;28;20031;-72
2022/07/30 07:23:05;;;;;;;30.88;2.70;;;;;;;19.37;72.77;101389.50;5112471;28;20069;-72
2022/07/30 07:25:30;;;;;;;3.88;1.80;;;;;;;19.45;72.54;101370.38;5112235;28;20032;-71
2022/07/30 07:27:56;;;;;;;1.85;1.38;;;;;;;19.42;71.78;101378.91;5111274;28;20406;-74
2022/07/30 07:30:21;;;;;;;4.05;1.52;;;;;;;19.48;72.62;101388.03;5111094;28;20447;-71
2022/07/30 07:32:47;;;;;;;1.83;1.73;;;;;;;19.55;72.93;101397.03;5111974;28;20032;-74
2022/07/30 07:35:13;;;;;;;6.20;1.80;;;;;;;19.53;72.89;101392.81;5113223;28;20056;-74
2022/07/30 07:37:40;;;;;;;7.18;2.20;;;;;;;19.51;73.28;101398.44;5115947;28;20036;-73
2022/07/30 07:40:07;;;;;;;3.15;0.93;;;;;;;19.47;71.83;101398.03;5120194;28;20036;-74
2022/07/30 07:42:32;;;;;;;3.83;1.00;;;;;;;19.54;71.06;101389.13;5115020;28;20039;-74
2022/07/30 07:44:58;;;;;;;1.33;1.17;;;;;;;19.59;70.55;101381.22;5124867;28;20042;-75
2022/07/30 07:47:23;;;;;;;1.88;1.17;;;;;;;19.74;69.38;101384.56;5123557;28;20452;-74
2022/07/30 07:49:49;;;;;;;4.97;2.08;;;;;;;19.67;70.26;101386.44;5112778;28;20118;-74
2022/07/30 07:52:14;;;;;;;3.50;1.20;;;;;;;19.54;70.43;101378.31;5113445;28;20031;-71
2022/07/30 07:54:39;;;;;;;3.30;1.70;;;;;;;19.25;72.23;101382.19;5112506;28;20031;-74
2022/07/30 07:57:06;;;;;;;1.63;0.82;;;;;;;19.03;73.55;101385.03;5114055;28;20036;-73
2022/07/30 07:59:33;;;;;;;2.50;1.00;;;;;;;18.93;72.45;101390.00;5112069;28;20032;-77
2022/07/30 08:01:58;;;;;;;1.38;1.17;;;;;;;18.56;72.42;101393.94;5113716;28;20032;-74
2022/07/30 08:04:25;;;;;;;3.15;1.25;;;;;;;18.39;73.41;101398.00;5112719;28;20154;-75
2022/07/30 08:06:54;;;;;;;4.15;2.10;;;;;;;18.50;73.70;101398.28;5111073;28;20065;-72
2022/07/30 08:09:19;;;;;;;2.83;1.65;;;;;;;18.80;73.14;101385.38;5113202;28;20028;-73
2022/07/30 08:11:45;;;;;;;5.88;2.67;;;;;;;19.25;71.07;101390.28;5114504;28;20032;-70
2022/07/30 08:14:10;;;;;;;3.88;2.03;;;;;;;19.47;70.88;101398.03;5115189;28;20110;-73
2022/07/30 08:16:36;;;;;;;3.92;1.80;;;;;;;19.69;69.30;101390.59;5116179;28;20031;-74
2022/07/30 08:19:01;;;;;;;5.03;1.60;;;;;;;19.82;68.63;101395.16;5115714;28;20041;-72
2022/07/30 08:21:27;;;;;;;8.75;2.50;;;;;;;19.85;69.74;101393.91;5115992;28;20032;-72
2022/07/30 08:23:52;;;;;;;5.82;1.70;;;;;;;19.61;70.69;101401.59;5116224;28;20035;-76
2022/07/30 08:26:18;;;;;;;3.30;1.70;;;;;;;19.23;73.94;101414.78;5116173;28;20115;-75
2022/07/30 08:28:44;;;;;;;3.97;1.30;;;;;;;18.91;76.33;101396.63;5114413;28;20057;-77
2022/07/30 08:31:10;;;;;;;4.65;2.60;;;;;;;18.96;77.36;101399.53;5117815;28;20081;-76
2022/07/30 08:33:35;;;;;;;2.00;1.35;;;;;;;18.95;74.99;101381.69;5117552;28;20023;-77
2022/07/30 08:36:01;;;;;;;3.97;1.75;;;;;;;19.28;75.32;101397.97;5117478;28;20044;-75
2022/07/30 08:38:30;;;;;;;6.68;2.25;;;;;;;19.64;75.48;101403.03;5116228;28;20036;-79
2022/07/30 08:40:59;;;;;;;1.98;1.75;;;;;;;19.98;73.49;101399.34;5097375;28;20073;-77
2022/07/30 08:43:25;;;;;;;1.75;1.20;;;;;;;20.19;70.97;101390.13;5112134;28;20143;-78
2022/07/30 08:45:52;;;;;;;1.42;0.98;;;;;;;20.13;71.21;101386.41;5114568;28;20401;-76
2022/07/30 08:48:19;;;;;;;3.40;1.10;;;;;;;19.85;71.28;101381.22;5114290;28;20035;-73
2022/07/30 08:50:45;;;;;;;1.73;1.15;;;;;;;19.64;71.66;101379.56;5113342;28;20043;-74
2022/07/30 08:53:12;;;;;;;2.83;1.17;;;;;;;19.44;72.41;101387.63;5113435;28;20632;-76
2022/07/30 08:55:37;;;;;;;4.43;1.60;;;;;;;19.37;72.66;101392.19;5114961;28;20035;-74
2022/07/30 08:58:04;;;;;;;3.90;1.65;;;;;;;19.33;73.04;101385.50;5115192;27;20529;-77
2022/07/30 09:00:30;;;;;;;4.53;1.73;;;;;;;19.44;71.19;101390.34;5116579;28;20434;-75
2022/07/30 09:02:56;;;;;;;5.68;2.00;;;;;;;19.64;72.35;101386.81;5114697;28;20040;-74
2022/07/30 09:05:22;;;;;;;2.17;1.70;;;;;;;19.83;68.99;101390.59;5113329;28;20114;-74
2022/07/30 09:07:50;;;;;;;4.05;1.55;;;;;;;19.91;68.07;101393.91;5115224;28;20093;-74
2022/07/30 09:10:16;;;;;;;9.07;1.90;;;;;;;20.06;69.57;101399.09;5114243;28;20035;-74
2022/07/30 09:12:43;;;;;;;4.93;1.67;;;;;;;20.25;67.42;101383.91;5114060;28;20032;-72
2022/07/30 09:15:19;;;;;;;2.35;1.50;;;;;;;20.52;68.32;101399.03;5114271;28;20039;-73
2022/07/30 09:17:52;;;;;;;2.00;1.58;;;;;;;20.68;66.14;101397.75;5114701;28;20125;-74
2022/07/30 09:20:19;;;;;;;2.40;1.10;;;;;;;20.55;64.73;101390.53;5114176;28;20486;-72
2022/07/30 09:22:48;;;;;;;18.63;2.05;;;;;;;20.28;65.40;101389.72;5114146;28;20122;-72
2022/07/30 09:25:13;;;;;;;1.83;1.33;;;;;;;20.24;65.93;101388.50;5113685;28;20043;-72
2022/07/30 09:27:44;;;;;;;4.25;1.83;;;;;;;20.27;66.96;101382.66;5113597;28;20032;-72
2022/07/30 09:30:10;;;;;;;3.33;1.15;;;;;;;20.37;65.88;101387.63;5114068;28;20027;-72
2022/07/30 09:32:51;;;;;;;4.15;2.10;;;;;;;20.42;66.14;101396.78;5114181;28;20036;-72
2022/07/30 09:35:17;;;;;;;4.07;1.00;;;;;;;20.51;65.17;101396.53;5113890;27;20109;-72
2022/07/30 09:37:44;;;;;;;4.05;1.38;;;;;;;20.58;65.03;101391.97;5113843;28;20051;-73
2022/07/30 09:40:15;;;;;;;0.95;0.75;;;;;;;20.53;63.96;101376.38;5114242;28;20088;-74
2022/07/30 09:42:42;;;;;;;6.32;1.58;;;;;;;20.91;65.16;101405.38;5114987;27;20037;-72
2022/07/30 09:45:11;;;;;;;5.03;1.05;;;;;;;20.99;64.88;101381.56;5115043;28;20058;-72
2022/07/30 09:47:41;;;;;;;2.00;1.40;;;;;;;20.93;65.75;101395.97;5112384;28;20114;-74
2022/07/30 09:50:08;;;;;;;8.35;1.42;;;;;;;20.92;65.04;101390.78;5095493;28;20031;-73
2022/07/30 09:52:35;;;;;;;4.35;1.30;;;;;;;21.02;65.04;101401.97;5113296;28;20322;-72
2022/07/30 09:55:01;;;;;;;5.70;1.23;;;;;;;20.72;64.66;101402.50;5114533;28;20097;-72
2022/07/30 09:57:26;;;;;;;6.45;1.10;;;;;;;20.81;65.32;101421.22;5112514;28;20059;-73
2022/07/30 09:59:52;;;;;;;13.95;1.65;;;;;;;20.66;63.78;101403.38;5113309;28;20514;-74
2022/07/30 10:02:18;;;;;;;5.55;1.10;;;;;;;20.70;64.06;101399.19;5113703;28;20042;-72
2022/07/30 10:04:43;;;;;;;5.13;1.80;;;;;;;20.92;63.83;101407.03;5113402;28;20039;-71
2022/07/30 10:07:21;;;;;;;1.38;1.05;;;;;;;21.21;63.81;101408.34;5115124;28;20036;-73
2022/07/30 10:09:53;;;;;;;3.80;1.52;;;;;;;21.36;62.50;101397.22;5111978;28;20083;-73
2022/07/30 10:12:20;;;;;;;12.07;1.85;;;;;;;21.46;61.13;101416.56;5113157;28;20118;-73
2022/07/30 10:14:48;;;;;;;5.65;1.88;;;;;;;21.36;61.65;101408.06;5113305;28;20035;-73
2022/07/30 10:17:14;;;;;;;2.95;1.00;;;;;;;21.43;61.69;101408.88;5113205;28;20090;-73
2022/07/30 10:19:39;;;;;;;6.05;1.80;;;;;;;21.40;61.95;101421.00;5112887;28;20528;-73
2022/07/30 10:22:05;;;;;;;5.40;1.95;;;;;;;21.40;60.92;101418.28;5112847;28;20043;-72
2022/07/30 10:24:33;;;;;;;1.52;1.17;;;;;;;21.20;61.70;101415.66;5112915;28;20383;-73
2022/07/30 10:26:59;;;;;;;7.47;1.65;;;;;;;21.13;63.04;101414.84;5113107;28;20031;-74
2022/07/30 10:29:25;;;;;;;8.00;1.65;;;;;;;21.32;60.96;101411.22;5112959;28;20065;-73
2022/07/30 10:31:50;;;;;;;5.60;3.15;;;;;;;21.52;61.38;101426.53;5112893;28;20032;-74
2022/07/30 10:34:19;;;;;;;3.40;1.77;;;;;;;21.51;61.09;101419.44;5112968;28;20082;-74
2022/07/30 10:36:53;;;;;;;6.47;2.00;;;;;;;21.20;61.46;101425.66;5113172;28;20035;-74
2022/07/30 10:39:25;;;;;;;3.17;1.92;;;;;;;20.58;62.67;101436.09;5113088;28;20487;-73
2022/07/30 10:42:21;;;;;;;5.07;1.48;;;;;;;19.99;65.52;101450.50;5113071;28;20489;-73
2022/07/30 10:45:06;;;;;;;6.78;1.80;;;;;;;19.47;66.86;101457.44;5113271;28;20074;-71
2022/07/30 10:47:32;;;;;;;3.28;1.25;;;;;;;19.22;68.21;101448.22;5113124;28;20040;-74
2022/07/30 10:50:09;;;;;;;4.05;1.63;;;;;;;19.15;68.41;101459.03;5112828;28;20031;-73
2022/07/30 10:52:51;;;;;;;3.72;1.75;;;;;;;19.09;68.36;101448.19;5112654;28;20065;-72
2022/07/30 10:55:19;;;;;;;2.75;1.77;;;;;;;19.05;68.73;101458.53;5112731;28;20038;-72
2022/07/30 10:57:59;;;;;;;4.30;1.60;;;;;;;19.13;68.58;101466.50;5112731;28;20036;-73
2022/07/30 11:00:26;;;;;;;3.35;1.40;;;;;;;19.11;69.29;101459.63;5112563;28;20077;-72
2022/07/30 11:03:12;;;;;;;3.58;1.83;;;;;;;19.23;69.74;101471.50;5112549;28;20494;-72
2022/07/30 11:05:39;;;;;;;2.10;1.20;;;;;;;19.19;70.71;101468.38;5112909;28;20089;-73
2022/07/30 11:08:43;;;;;;;1.50;1.10;;;;;;;19.07;72.13;101472.66;5112267;28;20040;-74
2022/07/30 11:11:20;;;;;;;3.72;1.70;;;;;;;18.91;74.60;101472.19;5111989;28;20071;-72
2022/07/30 11:14:01;;;;;;;5.22;2.83;;;;;;;19.02;74.16;101464.34;5112760;28;20391;-72
2022/07/30 11:16:29;;;;;;;2.17;1.85;;;;;;;19.09;73.34;101472.50;5112584;28;20479;-73
2022/07/30 11:19:15;;;;;;;6.50;1.67;;;;;;;19.34;72.70;101475.47;5112571;28;20454;-73
2022/07/30 11:21:42;;;;;;;3.78;1.80;;;;;;;19.50;70.79;101470.53;5112323;28;20164;-73
2022/07/30 11:24:46;;;;;;;3.42;1.70;;;;;;;19.57;71.13;101472.47;5111987;28;20108;-72
2022/07/30 11:27:39;;;;;;;2.95;2.17;;;;;;;19.46;71.59;101474.69;5112594;28;20031;-73